KTLH

Tallahassee Regional Airport

Airport
ICAO code
KTLH
Summary
ICAO Region
NAM
ICAO Territory
Location

Tallahassee, Florida,

Coordinates
30° 24' 3" N , 84° 21' 17" W
KCC
Metar
KTLH 201853Z 06012G19KT 10SM SCT040 BKN080 33/21 A3014 RMK AO2 SLP206 T03330206

Description

Tallahassee Regional Airport public-use airport located 7 km southwest of the central business district of Tallahassee, the Capital City of the state of Florida.

Climatology

Humid “subtropical” climate (Köppen climate classification Cfa) - characterized by hot, humid summers and cool winters. Significant amounts of precipitation occur in all seasons in most areas.

Runways

Designator Length Width Surface Rops
18/36 1852 46 ASP Yes/Yes
9/27 2438 46 ASP Yes/Yes

Airport map

Aerial View

SKYbrary Partners:

Safety knowledge contributed by: